Time;durP1;ratioP1;P1;durP2;ratioP2;P2;SDS_P1;SDS_P2;PMS_P1;PMS_P2;Temp;Humidity;BMP_temperature;BMP_pressure;BME280_temperature;BME280_humidity;BME280_pressure;Samples;Min_cycle;Max_cycle;Signal;HPM_P1;HPM_P2
2020/12/18 00:01:25;;;;;;;21.08;10.20;;;;;;;5.78;93.13;97991.88;5102902;28;20526;-59
2020/12/18 00:03:52;;;;;;;16.08;8.40;;;;;;;5.82;92.60;97988.19;5104166;28;20110;-59
2020/12/18 00:06:17;;;;;;;18.55;9.68;;;;;;;5.79;92.89;97988.00;5104337;28;20197;-59
2020/12/18 00:08:43;;;;;;;25.20;11.18;;;;;;;5.56;93.21;97956.19;5104749;28;20538;-60
2020/12/18 00:11:09;;;;;;;22.23;10.80;;;;;;;5.78;92.53;97978.13;5104230;28;20028;-59
2020/12/18 00:13:35;;;;;;;22.17;11.75;;;;;;;5.24;92.85;97898.81;5104996;28;20161;-60
2020/12/18 00:16:00;;;;;;;19.85;9.63;;;;;;;5.67;91.29;97969.34;5104713;28;20409;-61
2020/12/18 00:18:26;;;;;;;26.55;12.20;;;;;;;5.47;90.72;97947.09;5104777;28;20027;-60
2020/12/18 00:20:52;;;;;;;23.42;11.82;;;;;;;5.71;92.23;97986.00;5104491;28;20370;-60
2020/12/18 00:23:18;;;;;;;22.90;10.68;;;;;;;5.62;92.58;97993.41;5104251;28;20598;-60
2020/12/18 00:25:49;;;;;;;19.45;9.10;;;;;;;5.45;93.54;97993.31;5087971;28;20094;-60
2020/12/18 00:28:16;;;;;;;14.00;7.45;;;;;;;5.36;93.99;97995.19;5082877;28;20046;-61
2020/12/18 00:30:41;;;;;;;19.40;8.63;;;;;;;5.45;94.49;98015.28;5082507;28;20067;-59
2020/12/18 00:33:07;;;;;;;25.58;12.38;;;;;;;5.27;94.64;97953.94;5100024;28;20050;-60
2020/12/18 00:35:33;;;;;;;28.58;13.25;;;;;;;5.35;93.29;97955.09;5082817;28;20494;-59
2020/12/18 00:37:59;;;;;;;26.00;11.98;;;;;;;5.23;92.59;97924.66;5082847;28;20032;-58
2020/12/18 00:40:24;;;;;;;22.98;11.63;;;;;;;5.35;92.19;97933.94;5082087;28;20586;-61
2020/12/18 00:42:50;;;;;;;20.65;9.35;;;;;;;5.36;92.09;97940.25;5083956;28;20639;-60
2020/12/18 00:45:15;;;;;;;23.08;11.00;;;;;;;5.35;91.81;97922.97;5083885;28;20456;-60
2020/12/18 00:47:41;;;;;;;26.08;11.85;;;;;;;5.36;92.75;97946.53;5085501;28;20030;-61
2020/12/18 00:50:06;;;;;;;127.30;58.90;;;;;;;5.31;93.38;97970.59;5104071;28;20045;-60
2020/12/18 00:52:31;;;;;;;36.17;18.38;;;;;;;5.19;93.56;97951.13;5104043;28;20407;-60
2020/12/18 00:54:57;;;;;;;24.20;11.05;;;;;;;5.47;93.72;97996.56;5104326;28;20780;-61
2020/12/18 00:57:24;;;;;;;22.05;11.30;;;;;;;4.59;93.92;97855.47;5104176;28;20103;-61
2020/12/18 00:59:49;;;;;;;25.90;10.68;;;;;;;5.28;93.71;97976.72;5104069;28;20054;-60
2020/12/18 01:02:15;;;;;;;15.05;7.50;;;;;;;5.16;94.06;97957.25;5102541;28;20039;-59
2020/12/18 01:04:40;;;;;;;24.48;10.40;;;;;;;5.26;94.17;97989.94;5105607;28;20358;-59
2020/12/18 01:07:06;;;;;;;17.88;9.18;;;;;;;4.24;96.29;97848.09;5105962;28;20035;-61
2020/12/18 01:09:31;;;;;;;13.68;7.03;;;;;;;4.48;96.15;97881.53;5107641;28;20039;-59
2020/12/18 01:11:57;;;;;;;15.32;8.15;;;;;;;5.12;97.08;97967.25;5107417;28;20411;-60
2020/12/18 01:14:22;;;;;;;16.42;8.20;;;;;;;4.86;96.29;97958.00;5106041;28;20493;-60
2020/12/18 01:16:55;;;;;;;17.23;8.48;;;;;;;5.16;97.12;97996.50;5107619;28;20051;-60
2020/12/18 01:19:21;;;;;;;19.53;10.57;;;;;;;5.22;97.29;98005.41;5107519;28;20042;-60
2020/12/18 01:21:48;;;;;;;17.25;8.38;;;;;;;5.32;96.52;97994.19;5107880;28;20059;-60
2020/12/18 01:24:14;;;;;;;15.82;8.57;;;;;;;5.31;95.53;97987.09;5107332;28;20047;-61
2020/12/18 01:26:39;;;;;;;16.25;8.52;;;;;;;5.11;95.04;97971.09;5106998;28;20024;-61
2020/12/18 01:29:05;;;;;;;15.38;8.60;;;;;;;5.16;94.32;97965.47;5107480;28;20035;-60
2020/12/18 01:31:30;;;;;;;20.80;10.55;;;;;;;4.95;95.18;97939.66;5107224;28;20041;-60
2020/12/18 01:33:56;;;;;;;17.80;8.77;;;;;;;5.09;94.66;97934.91;5107361;28;20031;-60
2020/12/18 01:36:21;;;;;;;18.17;9.07;;;;;;;5.12;95.33;97953.50;5106892;28;20561;-60
2020/12/18 01:38:47;;;;;;;21.52;9.95;;;;;;;5.51;94.94;98014.03;5107252;27;20050;-59
2020/12/18 01:41:13;;;;;;;17.98;8.82;;;;;;;5.13;94.53;97941.41;5106731;28;20035;-59
2020/12/18 01:43:38;;;;;;;16.65;8.65;;;;;;;5.47;94.81;97997.34;5107325;28;20106;-59
2020/12/18 01:46:10;;;;;;;17.55;9.02;;;;;;;4.93;94.12;97919.94;5105625;28;20089;-59
2020/12/18 01:48:39;;;;;;;19.67;9.95;;;;;;;5.22;94.56;97964.22;5106965;28;20053;-60
2020/12/18 01:51:07;;;;;;;22.63;10.25;;;;;;;5.14;94.67;97943.03;5106845;28;20556;-60
2020/12/18 01:53:32;;;;;;;20.05;9.73;;;;;;;4.99;93.97;97918.69;5106887;28;20043;-60
2020/12/18 01:55:58;;;;;;;19.05;9.15;;;;;;;4.81;94.10;97916.94;5106806;28;20036;-60
2020/12/18 01:58:23;;;;;;;17.85;10.02;;;;;;;5.08;93.64;97936.03;5105119;28;20034;-62
2020/12/18 02:00:50;;;;;;;19.13;9.30;;;;;;;5.11;92.90;97938.16;5104749;28;20086;-60
2020/12/18 02:03:16;;;;;;;17.50;9.98;;;;;;;4.82;93.47;97915.84;5106722;28;20024;-61
2020/12/18 02:05:41;;;;;;;19.60;11.13;;;;;;;4.92;93.82;97941.09;5106828;28;20043;-60
2020/12/18 02:08:07;;;;;;;20.40;9.35;;;;;;;5.06;94.52;97954.78;5106813;28;20031;-61
2020/12/18 02:10:33;;;;;;;20.42;10.50;;;;;;;5.50;93.18;97995.94;5104787;28;20118;-60
2020/12/18 02:12:59;;;;;;;23.90;10.70;;;;;;;5.30;93.36;97963.47;5104840;28;20058;-60
2020/12/18 02:15:26;;;;;;;26.27;11.63;;;;;;;4.73;93.40;97868.31;5106397;28;20517;-61
2020/12/18 02:17:52;;;;;;;38.33;16.42;;;;;;;4.89;92.60;97902.47;5106365;28;20029;-61
2020/12/18 02:20:18;;;;;;;22.65;9.93;;;;;;;4.81;92.33;97908.69;5106253;28;20470;-60
2020/12/18 02:22:44;;;;;;;17.63;8.57;;;;;;;5.33;92.16;97998.53;5105081;28;20046;-62
2020/12/18 02:25:11;;;;;;;22.15;9.73;;;;;;;5.35;92.28;97999.88;5106424;28;20541;-61
2020/12/18 02:27:40;;;;;;;20.45;9.20;;;;;;;5.34;92.63;97995.47;5106316;28;20483;-59
2020/12/18 02:30:07;;;;;;;25.33;11.15;;;;;;;5.09;92.15;97954.13;5106668;28;20055;-60
2020/12/18 02:32:33;;;;;;;23.95;10.88;;;;;;;5.06;93.90;97987.72;5104167;28;20294;-60
2020/12/18 02:34:58;;;;;;;19.48;10.15;;;;;;;4.56;95.22;97894.50;5104897;28;20035;-61
2020/12/18 02:37:23;;;;;;;18.63;9.55;;;;;;;4.80;95.47;97920.81;5105913;28;20034;-59
2020/12/18 02:39:49;;;;;;;23.13;10.73;;;;;;;5.08;94.48;97960.75;5106082;28;20035;-60
2020/12/18 02:42:14;;;;;;;22.25;10.88;;;;;;;4.71;94.55;97889.75;5106003;28;20409;-60
2020/12/18 02:44:40;;;;;;;22.85;11.65;;;;;;;5.24;93.70;97951.00;5105700;28;20029;-60
2020/12/18 02:47:05;;;;;;;22.60;9.90;;;;;;;5.41;92.93;98000.53;5105767;28;20112;-60
2020/12/18 02:49:31;;;;;;;21.67;9.80;;;;;;;4.93;93.69;97914.47;5105713;28;20044;-60
2020/12/18 02:51:56;;;;;;;23.08;10.43;;;;;;;5.44;93.55;97991.66;5105491;28;20051;-59
2020/12/18 02:54:22;;;;;;;23.13;12.63;;;;;;;5.44;93.21;98052.13;5105725;28;20118;-60
2020/12/18 02:56:47;;;;;;;24.33;11.38;;;;;;;5.42;93.26;98004.94;5105300;28;20036;-59
2020/12/18 02:59:16;;;;;;;23.65;11.73;;;;;;;4.97;93.44;97931.91;5104129;28;20067;-61
2020/12/18 03:01:41;;;;;;;22.65;12.13;;;;;;;5.25;94.02;97983.63;5104877;28;20077;-60
2020/12/18 03:04:07;;;;;;;24.48;12.32;;;;;;;5.29;95.30;97976.41;5105443;28;20048;-60
2020/12/18 03:06:32;;;;;;;26.20;12.95;;;;;;;4.82;94.10;97913.09;5105338;28;20126;-60
2020/12/18 03:08:58;;;;;;;22.00;12.02;;;;;;;5.31;93.77;97987.09;5105470;28;20115;-61
2020/12/18 03:11:23;;;;;;;25.23;12.02;;;;;;;5.29;94.45;97995.63;5105386;28;20523;-60
2020/12/18 03:13:49;;;;;;;26.75;12.88;;;;;;;5.37;94.36;98002.31;5103960;28;20482;-59
2020/12/18 03:16:15;;;;;;;25.40;10.55;;;;;;;5.30;94.82;97996.44;5103787;28;20058;-61
2020/12/18 03:18:41;;;;;;;20.02;8.20;;;;;;;5.29;93.39;97978.34;5105491;28;20059;-59
2020/12/18 03:21:07;;;;;;;16.88;9.48;;;;;;;5.12;93.47;97973.53;5105671;28;20501;-60
2020/12/18 03:23:32;;;;;;;20.38;8.95;;;;;;;4.94;93.93;97943.53;5105446;28;20528;-60
2020/12/18 03:25:58;;;;;;;19.08;10.77;;;;;;;4.85;94.76;97923.44;5105368;28;20561;-60
2020/12/18 03:28:23;;;;;;;19.23;8.35;;;;;;;5.28;93.63;97983.00;5103442;28;20088;-59
2020/12/18 03:30:49;;;;;;;17.92;8.70;;;;;;;5.10;93.57;97955.75;5104995;28;20027;-61
2020/12/18 03:33:15;;;;;;;24.05;11.73;;;;;;;4.66;93.25;97858.56;5103603;28;20032;-59
2020/12/18 03:35:40;;;;;;;22.05;11.48;;;;;;;5.34;92.97;97964.47;5104518;28;20057;-61
2020/12/18 03:38:05;;;;;;;21.30;11.23;;;;;;;5.25;93.31;97961.66;5103447;28;20030;-61
2020/12/18 03:40:31;;;;;;;22.05;11.07;;;;;;;5.26;94.05;97962.50;5104909;28;20032;-61
2020/12/18 03:42:56;;;;;;;25.13;12.55;;;;;;;5.28;93.05;97961.03;5103215;28;20046;-62
2020/12/18 03:45:22;;;;;;;31.48;14.52;;;;;;;5.04;93.64;97910.34;5105009;28;20063;-59
2020/12/18 03:47:48;;;;;;;24.58;11.32;;;;;;;5.41;93.99;97970.31;5104847;28;20034;-60
2020/12/18 03:50:13;;;;;;;27.58;12.80;;;;;;;5.22;92.56;97961.47;5104255;28;20027;-59
2020/12/18 03:52:39;;;;;;;24.45;11.75;;;;;;;5.35;93.26;97974.34;5102971;28;20047;-59
2020/12/18 03:55:05;;;;;;;28.00;12.50;;;;;;;5.10;91.89;97903.59;5102994;28;20042;-59
2020/12/18 03:57:30;;;;;;;32.10;13.88;;;;;;;5.54;90.83;97970.25;5104780;28;20027;-60
2020/12/18 03:59:56;;;;;;;26.23;12.70;;;;;;;5.07;90.87;97915.19;5104763;28;20509;-60
2020/12/18 04:02:22;;;;;;;26.95;12.10;;;;;;;5.26;91.50;97957.81;5103306;28;20023;-60
2020/12/18 04:04:47;;;;;;;24.17;12.13;;;;;;;5.04;92.76;97929.56;5104949;28;20160;-59
2020/12/18 04:07:13;;;;;;;24.40;10.65;;;;;;;4.90;91.33;97893.13;5103401;28;20041;-59
2020/12/18 04:09:40;;;;;;;25.48;10.88;;;;;;;5.10;90.83;97906.31;5104518;28;20492;-59
2020/12/18 04:12:05;;;;;;;35.03;15.18;;;;;;;5.16;90.94;97946.25;5104344;28;20579;-60
2020/12/18 04:14:31;;;;;;;36.88;15.85;;;;;;;5.33;90.82;97980.13;5104750;28;20036;-61
2020/12/18 04:16:57;;;;;;;145.27;40.50;;;;;;;5.33;92.83;97984.81;5104364;28;20036;-58
2020/12/18 04:19:22;;;;;;;81.18;27.02;;;;;;;5.17;93.46;97958.88;5104274;28;20395;-58
2020/12/18 04:21:48;;;;;;;95.70;31.60;;;;;;;5.02;92.48;97915.31;5103126;28;20039;-59
2020/12/18 04:24:13;;;;;;;62.42;22.92;;;;;;;5.24;93.09;97949.06;5104318;28;20173;-63
2020/12/18 04:26:38;;;;;;;34.80;15.80;;;;;;;5.01;92.73;97910.97;5102785;28;20144;-60
2020/12/18 04:29:04;;;;;;;34.83;16.33;;;;;;;5.21;92.94;97955.19;5102985;28;20071;-59
2020/12/18 04:31:29;;;;;;;27.55;13.30;;;;;;;5.44;91.55;97999.91;5104098;28;20217;-60
2020/12/18 04:33:55;;;;;;;30.77;14.55;;;;;;;5.14;91.95;97943.03;5104393;28;20857;-59
2020/12/18 04:36:20;;;;;;;27.27;13.43;;;;;;;4.87;92.38;97954.13;5104024;28;20577;-59
2020/12/18 04:38:46;;;;;;;24.00;11.70;;;;;;;5.22;92.26;97961.47;5104636;28;20550;-59
2020/12/18 04:41:12;;;;;;;26.35;13.57;;;;;;;5.36;92.05;97989.72;5108003;28;20530;-60
2020/12/18 04:43:38;;;;;;;28.67;14.05;;;;;;;5.45;91.26;98004.31;5106595;28;20032;-60
2020/12/18 04:46:06;;;;;;;31.65;14.27;;;;;;;5.11;91.13;97947.19;5108448;28;20039;-62
2020/12/18 04:48:31;;;;;;;23.27;11.50;;;;;;;5.24;91.22;97975.72;5103939;28;20550;-59
2020/12/18 04:50:57;;;;;;;29.17;14.05;;;;;;;5.34;91.40;97994.69;5087696;28;20135;-59
2020/12/18 04:53:32;;;;;;;30.50;14.82;;;;;;;5.37;91.98;98007.81;5087960;28;20024;-59
2020/12/18 04:56:08;;;;;;;32.70;16.23;;;;;;;5.37;92.19;98007.81;5087729;28;20042;-59
2020/12/18 04:58:35;;;;;;;36.25;17.50;;;;;;;5.48;90.77;98009.16;5088036;28;20032;-59
2020/12/18 05:01:02;;;;;;;56.70;25.85;;;;;;;5.46;89.96;98027.91;5087667;28;20121;-59
2020/12/18 05:03:35;;;;;;;126.47;48.10;;;;;;;5.24;90.46;97992.19;5087509;28;20032;-60
2020/12/18 05:06:03;;;;;;;90.82;37.00;;;;;;;5.12;90.56;97978.22;5086612;28;20039;-59
2020/12/18 05:08:30;;;;;;;29.05;13.45;;;;;;;5.09;91.22;98001.63;5086043;28;20798;-59
2020/12/18 05:10:56;;;;;;;36.38;16.70;;;;;;;5.14;92.14;98025.41;5086064;28;20150;-59
2020/12/18 05:13:21;;;;;;;35.05;16.40;;;;;;;4.82;91.71;97973.47;5085915;28;20046;-61
2020/12/18 05:15:47;;;;;;;42.92;19.23;;;;;;;4.82;91.33;97965.22;5102718;28;20526;-59
2020/12/18 05:18:13;;;;;;;50.83;24.02;;;;;;;4.82;92.61;97989.94;5085753;28;20028;-59
2020/12/18 05:20:40;;;;;;;89.45;35.30;;;;;;;4.81;91.92;97977.31;5087101;28;20375;-59
2020/12/18 05:23:09;;;;;;;71.30;30.65;;;;;;;4.83;92.69;98002.53;5087228;28;20032;-59
2020/12/18 05:25:38;;;;;;;32.60;14.48;;;;;;;4.74;93.50;98009.88;5086647;28;20143;-60
2020/12/18 05:28:04;;;;;;;57.63;23.35;;;;;;;4.75;93.62;98006.81;5087034;28;20038;-60
2020/12/18 05:30:30;;;;;;;89.50;34.35;;;;;;;4.86;92.05;98034.84;5086535;28;20114;-60
2020/12/18 05:32:56;;;;;;;92.68;37.85;;;;;;;5.02;93.15;98064.41;5086988;28;20035;-60
2020/12/18 05:35:22;;;;;;;67.55;33.92;;;;;;;5.02;93.31;98066.31;5086998;28;20040;-60
2020/12/18 05:37:50;;;;;;;229.80;90.45;;;;;;;4.80;93.12;98030.59;5086804;28;20032;-62
2020/12/18 05:40:16;;;;;;;210.20;85.28;;;;;;;5.04;93.77;98059.41;5085165;28;20064;-60
2020/12/18 05:42:47;;;;;;;213.52;78.22;;;;;;;5.09;93.68;98062.03;5086770;28;20627;-61
2020/12/18 05:45:15;;;;;;;99.45;37.45;;;;;;;5.08;93.44;98070.56;5086256;28;20066;-60
2020/12/18 05:47:57;;;;;;;103.90;45.28;;;;;;;5.08;94.08;98065.09;5087891;28;20077;-60
2020/12/18 05:50:34;;;;;;;106.95;45.10;;;;;;;5.13;93.42;98073.19;5106396;27;20035;-60
2020/12/18 05:53:03;;;;;;;136.60;52.70;;;;;;;5.09;93.77;98072.22;5105368;28;20499;-61
2020/12/18 05:55:39;;;;;;;53.85;23.88;;;;;;;4.25;93.38;97931.16;5087609;28;20474;-62
2020/12/18 05:58:05;;;;;;;34.22;14.30;;;;;;;5.06;93.58;98089.31;5104407;28;20078;-63
2020/12/18 06:00:36;;;;;;;40.38;17.30;;;;;;;5.13;93.57;98084.19;5102531;28;20040;-59
2020/12/18 06:03:08;;;;;;;35.13;16.92;;;;;;;5.26;91.38;98094.31;5085176;28;20032;-59
2020/12/18 06:05:36;;;;;;;25.88;11.85;;;;;;;4.68;93.36;98066.00;5084805;28;20162;-60
2020/12/18 06:08:06;;;;;;;31.10;13.32;;;;;;;4.76;94.46;98054.31;5085446;28;20024;-59
2020/12/18 06:10:33;;;;;;;25.73;12.48;;;;;;;4.77;93.59;98037.53;5084789;28;20044;-60
2020/12/18 06:13:03;;;;;;;29.90;14.32;;;;;;;4.96;93.61;98064.81;5091803;28;20031;-60
2020/12/18 06:15:28;;;;;;;39.72;21.50;;;;;;;5.07;93.39;98068.97;5101834;28;20107;-61
2020/12/18 06:17:55;;;;;;;36.65;17.67;;;;;;;5.18;91.73;98093.13;5099632;28;20483;-59
2020/12/18 06:20:20;;;;;;;33.38;16.50;;;;;;;4.98;92.09;98109.25;5086132;28;20509;-58
2020/12/18 06:23:05;;;;;;;33.58;15.35;;;;;;;5.02;92.78;98071.81;5104330;28;20032;-65
2020/12/18 06:25:31;;;;;;;37.70;19.83;;;;;;;5.10;92.74;98069.16;5106426;28;20044;-59
2020/12/18 06:28:02;;;;;;;33.53;17.38;;;;;;;4.77;92.23;98025.72;5104618;28;20511;-63
2020/12/18 06:30:28;;;;;;;34.88;18.55;;;;;;;4.74;91.90;98016.19;5106289;28;20040;-62
2020/12/18 06:32:54;;;;;;;35.25;17.45;;;;;;;5.26;91.40;98094.31;5098438;28;20453;-60
2020/12/18 06:35:33;;;;;;;30.38;13.50;;;;;;;5.30;90.45;98095.31;5096555;28;20047;-64
2020/12/18 06:38:19;;;;;;;34.67;16.65;;;;;;;5.17;92.17;98080.50;5113255;27;20044;-59
2020/12/18 06:40:44;;;;;;;52.65;25.00;;;;;;;4.17;92.35;97940.91;5074369;28;20413;-61
2020/12/18 06:43:10;;;;;;;46.50;23.27;;;;;;;4.75;92.02;98033.44;5085458;28;20042;-62
2020/12/18 06:45:36;;;;;;;44.17;20.67;;;;;;;4.77;91.87;98031.22;5083671;28;20052;-60
2020/12/18 06:48:27;;;;;;;42.50;20.08;;;;;;;5.22;91.73;98093.31;5095620;28;20031;-60
2020/12/18 06:50:52;;;;;;;35.28;17.13;;;;;;;4.95;90.64;98068.69;5096050;28;20617;-61
2020/12/18 06:53:18;;;;;;;30.85;15.35;;;;;;;4.87;91.60;98053.75;5084266;28;20111;-61
2020/12/18 06:55:44;;;;;;;27.58;13.82;;;;;;;4.99;92.56;98072.44;5084786;28;20030;-60
2020/12/18 06:58:11;;;;;;;38.72;19.38;;;;;;;5.00;91.76;98071.31;5088106;28;20414;-70
2020/12/18 07:00:43;;;;;;;41.92;21.80;;;;;;;5.10;91.83;98093.06;5094793;28;20065;-60
2020/12/18 07:03:10;;;;;;;47.33;25.48;;;;;;;4.94;92.44;98080.78;5103855;28;20027;-58
2020/12/18 07:05:43;;;;;;;43.55;19.77;;;;;;;5.03;92.70;98079.75;5109808;27;20050;-60
2020/12/18 07:08:11;;;;;;;37.63;20.65;;;;;;;5.18;92.63;98092.31;5095997;28;20036;-61
2020/12/18 07:10:37;;;;;;;43.85;22.00;;;;;;;5.31;92.28;98085.97;5082595;28;20035;-59
2020/12/18 07:13:04;;;;;;;33.10;15.30;;;;;;;5.41;89.69;98096.69;5084401;28;20510;-60
2020/12/18 07:16:03;;;;;;;33.10;13.95;;;;;;;5.35;90.53;98086.97;5084944;28;20036;-59
2020/12/18 07:18:31;;;;;;;30.52;13.63;;;;;;;5.09;91.46;98067.50;5062900;28;20678;-65
2020/12/18 07:21:05;;;;;;;41.45;27.17;;;;;;;5.00;92.29;98117.97;5087041;28;20480;-60
2020/12/18 07:23:35;;;;;;;31.13;14.73;;;;;;;5.06;92.22;98067.34;5101403;27;20091;-61
2020/12/18 07:26:03;;;;;;;25.80;12.90;;;;;;;3.30;90.79;97761.44;5124628;27;20073;-60
2020/12/18 07:28:29;;;;;;;27.23;14.85;;;;;;;5.02;91.06;98033.38;5105100;27;20114;-62
2020/12/18 07:30:56;;;;;;;35.10;17.17;;;;;;;5.41;90.95;98094.78;5103692;28;20042;-61
2020/12/18 07:33:23;;;;;;;41.05;19.05;;;;;;;5.44;90.43;98093.31;5098464;28;20089;-61
2020/12/18 07:35:51;;;;;;;36.83;18.40;;;;;;;4.87;90.01;97989.81;5090492;28;20031;-61
2020/12/18 07:38:20;;;;;;;50.20;26.00;;;;;;;5.33;90.35;98073.53;5094408;28;20075;-58
2020/12/18 07:40:48;;;;;;;35.58;18.77;;;;;;;3.59;90.10;97786.53;5101197;28;20048;-63
2020/12/18 07:43:16;;;;;;;39.63;20.50;;;;;;;5.45;90.35;98094.97;5101688;28;20031;-59
2020/12/18 07:45:45;;;;;;;37.03;16.88;;;;;;;5.38;89.88;98056.13;5087944;28;20811;-62
2020/12/18 07:48:21;;;;;;;30.88;14.93;;;;;;;3.91;88.60;97815.69;5092373;28;20047;-68
2020/12/18 07:51:16;;;;;;;150.38;55.63;;;;;;;5.08;88.45;98007.41;5101680;28;20639;-60
2020/12/18 07:53:42;;;;;;;38.92;19.17;;;;;;;5.85;88.51;98086.53;5101444;28;20053;-61
2020/12/18 07:56:18;;;;;;;37.13;17.15;;;;;;;5.93;87.18;98096.78;5103078;28;20044;-60
2020/12/18 07:58:45;;;;;;;26.77;11.98;;;;;;;5.96;86.55;98098.09;5104511;28;20062;-60
2020/12/18 08:01:20;;;;;;;143.48;57.33;;;;;;;5.52;86.00;98038.44;5095182;28;20042;-61
2020/12/18 08:03:50;;;;;;;72.32;30.88;;;;;;;5.91;86.49;98095.50;5092363;28;20600;-61
2020/12/18 08:06:21;;;;;;;49.72;20.23;;;;;;;5.87;86.00;98078.81;5085021;28;20666;-59
2020/12/18 08:08:56;;;;;;;33.58;16.65;;;;;;;5.94;85.56;98095.66;5083792;28;20514;-60
2020/12/18 08:11:23;;;;;;;49.70;22.70;;;;;;;5.87;85.37;98106.31;5084078;28;20067;-58
2020/12/18 08:13:49;;;;;;;52.10;23.80;;;;;;;5.94;85.83;98098.41;5101415;28;20032;-60
2020/12/18 08:16:24;;;;;;;24.92;12.20;;;;;;;5.74;84.90;98084.34;5091283;28;20035;-63
2020/12/18 08:18:57;;;;;;;30.23;13.70;;;;;;;6.02;83.32;98096.84;5088445;28;20035;-66
2020/12/18 08:21:25;;;;;;;32.35;15.18;;;;;;;5.52;83.37;98026.63;5091854;28;20043;-61
2020/12/18 08:23:57;;;;;;;26.95;12.65;;;;;;;4.95;85.12;97978.09;5086586;28;20036;-62
2020/12/18 08:26:26;;;;;;;24.42;12.15;;;;;;;5.61;83.35;98033.03;5088226;28;20028;-61
2020/12/18 08:28:52;;;;;;;31.27;12.95;;;;;;;5.71;82.79;98035.47;5069117;28;20048;-60
2020/12/18 08:31:19;;;;;;;36.42;19.60;;;;;;;6.20;83.06;98092.25;5068419;28;20047;-62
2020/12/18 08:33:51;;;;;;;26.35;12.80;;;;;;;6.26;81.58;98110.25;5067039;28;20028;-59
2020/12/18 08:36:17;;;;;;;30.00;15.63;;;;;;;6.10;81.16;98071.31;5068171;28;20104;-63
2020/12/18 08:38:58;;;;;;;30.83;14.07;;;;;;;6.10;82.03;98065.84;5067150;28;20475;-66
2020/12/18 08:41:23;;;;;;;29.42;14.18;;;;;;;6.10;80.96;98038.31;5067204;28;20087;-60
2020/12/18 08:43:49;;;;;;;28.73;13.27;;;;;;;5.50;81.23;97965.72;5067234;28;20090;-61
2020/12/18 08:46:14;;;;;;;33.45;15.80;;;;;;;5.53;83.42;98050.25;5066860;28;20032;-59
2020/12/18 08:48:40;;;;;;;36.38;18.95;;;;;;;6.05;83.98;98057.72;5071283;28;20060;-65
2020/12/18 08:51:05;;;;;;;40.28;20.75;;;;;;;5.43;82.31;97940.59;5084656;28;20103;-62
2020/12/18 08:53:35;;;;;;;41.28;21.90;;;;;;;6.47;81.87;98075.50;5085059;28;20036;-63
2020/12/18 08:56:03;;;;;;;26.77;13.00;;;;;;;6.42;79.29;98051.69;5086161;28;20039;-63
2020/12/18 08:58:33;;;;;;;38.85;17.98;;;;;;;6.20;80.17;98018.75;5085609;28;20034;-61
2020/12/18 09:00:58;;;;;;;27.30;13.68;;;;;;;5.84;80.36;98004.38;5080998;28;20089;-60
2020/12/18 09:03:24;;;;;;;35.53;17.13;;;;;;;6.02;81.64;98012.38;5074948;28;20490;-59
2020/12/18 09:05:49;;;;;;;23.85;11.77;;;;;;;5.93;80.58;98005.22;5065416;28;20487;-58
2020/12/18 09:08:16;;;;;;;28.13;14.38;;;;;;;6.41;80.62;98061.09;5066278;28;20094;-60
2020/12/18 09:10:45;;;;;;;28.17;14.82;;;;;;;6.65;81.17;98078.00;5081532;28;20466;-61
2020/12/18 09:13:14;;;;;;;30.60;14.45;;;;;;;6.65;80.29;98078.00;5086860;28;20034;-60
2020/12/18 09:15:41;;;;;;;38.45;17.27;;;;;;;6.57;79.93;98065.03;5086795;28;20320;-61
2020/12/18 09:18:12;;;;;;;27.83;13.25;;;;;;;6.53;79.78;98064.03;5085905;28;20052;-61
2020/12/18 09:20:41;;;;;;;33.92;15.93;;;;;;;6.75;79.99;98060.38;5086926;28;20573;-61
2020/12/18 09:23:10;;;;;;;29.35;13.52;;;;;;;6.12;79.91;97975.53;5085138;28;20510;-60
2020/12/18 09:25:49;;;;;;;28.73;12.80;;;;;;;6.78;79.84;98065.25;5086184;28;20093;-60
2020/12/18 09:28:19;;;;;;;27.88;12.00;;;;;;;6.56;79.94;98074.41;5085425;28;20085;-58
2020/12/18 09:30:47;;;;;;;27.70;12.18;;;;;;;5.57;79.59;97891.84;5087488;28;20127;-61
2020/12/18 09:33:14;;;;;;;27.48;13.35;;;;;;;6.77;79.14;98064.44;5085716;28;20028;-59
2020/12/18 09:35:41;;;;;;;32.53;14.60;;;;;;;6.42;79.65;98009.63;5087053;28;20390;-59
2020/12/18 09:38:07;;;;;;;27.45;12.75;;;;;;;6.75;79.51;98065.91;5086724;28;20111;-59
2020/12/18 09:40:33;;;;;;;28.58;13.75;;;;;;;6.64;80.41;98043.34;5084761;28;20805;-59
2020/12/18 09:42:58;;;;;;;26.92;13.50;;;;;;;6.45;78.77;98012.53;5086550;28;20036;-58
2020/12/18 09:45:24;;;;;;;31.50;13.75;;;;;;;6.82;78.94;98078.06;5079204;28;20025;-58
2020/12/18 09:47:50;;;;;;;26.27;12.48;;;;;;;6.34;79.44;98027.72;5066516;28;20326;-59
2020/12/18 09:50:15;;;;;;;29.20;13.73;;;;;;;6.53;80.18;98061.28;5068448;28;20016;-60
2020/12/18 09:52:40;;;;;;;32.72;14.93;;;;;;;5.81;81.72;97963.75;5086679;28;20142;-59
2020/12/18 09:55:06;;;;;;;30.45;13.98;;;;;;;6.59;80.84;98072.97;5086609;28;20032;-60
2020/12/18 09:57:34;;;;;;;31.50;13.75;;;;;;;6.39;79.46;98019.31;5086194;28;20035;-61
2020/12/18 10:00:06;;;;;;;27.60;13.10;;;;;;;6.58;78.84;98033.63;5085115;28;20577;-60
2020/12/18 10:02:36;;;;;;;35.08;16.48;;;;;;;6.65;78.79;98028.47;5086324;28;20082;-61
2020/12/18 10:05:02;;;;;;;34.30;16.35;;;;;;;7.04;77.91;98063.34;5085019;28;20474;-60
2020/12/18 10:07:27;;;;;;;35.25;16.77;;;;;;;6.67;77.66;98025.38;5084810;28;20423;-60
2020/12/18 10:09:53;;;;;;;31.15;16.52;;;;;;;6.25;79.79;97980.13;5086218;28;20080;-60
2020/12/18 10:12:18;;;;;;;37.83;17.80;;;;;;;6.78;78.30;98035.75;5084781;28;20040;-59
2020/12/18 10:14:44;;;;;;;30.27;16.08;;;;;;;6.12;78.07;97948.03;5084929;28;20131;-60
2020/12/18 10:17:09;;;;;;;32.35;14.82;;;;;;;6.68;78.01;98018.75;5086023;28;20434;-59
2020/12/18 10:19:35;;;;;;;25.63;13.32;;;;;;;6.32;77.25;97958.47;5085567;28;20062;-60
2020/12/18 10:22:02;;;;;;;24.65;13.90;;;;;;;6.93;77.58;98062.84;5084038;28;20442;-60
2020/12/18 10:24:27;;;;;;;27.85;14.27;;;;;;;6.94;76.94;98038.88;5085790;28;20067;-60
2020/12/18 10:26:53;;;;;;;35.05;16.38;;;;;;;6.40;78.08;97998.94;5085489;28;20536;-59
2020/12/18 10:29:18;;;;;;;30.38;15.40;;;;;;;6.58;78.50;98006.09;5084238;28;20842;-61
2020/12/18 10:31:44;;;;;;;27.85;15.32;;;;;;;6.89;77.68;98012.28;5085394;28;20400;-60
2020/12/18 10:34:09;;;;;;;32.60;16.55;;;;;;;7.03;76.51;97996.44;5079170;28;20036;-61
2020/12/18 10:36:34;;;;;;;30.58;15.48;;;;;;;7.15;76.37;97993.81;5083106;28;20036;-59
2020/12/18 10:39:00;;;;;;;28.70;15.00;;;;;;;7.38;75.02;98017.28;5074377;28;20031;-60
2020/12/18 10:41:25;;;;;;;35.95;18.13;;;;;;;6.84;76.25;97987.69;5084138;28;20036;-60
2020/12/18 10:43:51;;;;;;;26.27;14.88;;;;;;;7.12;77.02;98026.72;5081528;28;20039;-63
2020/12/18 10:46:16;;;;;;;28.48;13.95;;;;;;;6.10;78.69;97961.31;5065247;28;20029;-61
2020/12/18 10:48:41;;;;;;;30.85;15.80;;;;;;;6.36;81.49;98008.94;5080668;28;20024;-61
2020/12/18 10:51:07;;;;;;;34.78;17.77;;;;;;;6.33;79.58;97967.50;5081571;28;20059;-59
2020/12/18 10:53:32;;;;;;;27.33;13.93;;;;;;;6.87;77.85;98033.03;5065644;28;20057;-60
2020/12/18 10:56:00;;;;;;;27.15;13.25;;;;;;;5.80;80.92;97951.13;5064759;28;20028;-59
2020/12/18 10:58:25;;;;;;;23.63;12.98;;;;;;;6.74;79.27;98032.03;5065453;28;20024;-61
2020/12/18 11:00:51;;;;;;;27.50;13.32;;;;;;;6.22;81.77;98013.75;5080595;28;20029;-59
2020/12/18 11:03:16;;;;;;;30.15;14.55;;;;;;;6.34;81.27;97993.91;5065316;28;20029;-60
2020/12/18 11:05:42;;;;;;;28.75;15.50;;;;;;;6.73;80.49;97989.13;5080586;28;20032;-59
2020/12/18 11:08:07;;;;;;;31.70;15.85;;;;;;;6.55;79.23;97935.16;5085091;28;20032;-56
2020/12/18 11:10:33;;;;;;;29.42;15.07;;;;;;;6.73;78.28;97947.81;5083476;28;20046;-59
2020/12/18 11:12:58;;;;;;;40.63;22.35;;;;;;;6.84;77.03;97916.06;5083308;28;20033;-58
2020/12/18 11:15:24;;;;;;;33.42;15.43;;;;;;;7.74;75.58;97995.66;5080071;28;20051;-59
2020/12/18 11:17:49;;;;;;;52.90;27.55;;;;;;;7.53;74.81;97961.66;5080514;28;20032;-60
2020/12/18 11:20:15;;;;;;;38.78;20.27;;;;;;;7.35;74.07;97904.16;5084192;28;20044;-59
2020/12/18 11:22:40;;;;;;;30.25;14.10;;;;;;;7.65;72.64;97959.03;5084507;28;20032;-62
2020/12/18 11:25:06;;;;;;;30.17;14.65;;;;;;;6.85;75.78;97925.94;5084029;28;20035;-60
2020/12/18 11:27:31;;;;;;;24.38;12.48;;;;;;;5.98;79.94;97947.34;5073688;28;20060;-59